Time;durP1;ratioP1;P1;durP2;ratioP2;P2;SDS_P1;SDS_P2;PMS_P1;PMS_P2;Temp;Humidity;BMP_temperature;BMP_pressure;BME280_temperature;BME280_humidity;BME280_pressure;Samples;Min_cycle;Max_cycle;Signal;HPM_P1;HPM_P2
2022/12/30 00:00:55;;;;;;;21.42;4.20;;;;;;;4.89;100.00;100850.50;5084383;28;20156;-73
2022/12/30 00:03:20;;;;;;;18.48;3.55;;;;;;;4.81;100.00;100846.78;5081009;28;20028;-73
2022/12/30 00:05:45;;;;;;;19.35;3.85;;;;;;;4.76;100.00;100852.72;5083774;28;20502;-77
2022/12/30 00:10:55;;;;;;;19.70;3.83;;;;;;;4.68;100.00;100856.03;5077784;28;20039;-75
2022/12/30 00:35:17;;;;;;;22.17;4.60;;;;;;;4.60;100.00;100880.22;5081257;28;20117;-75
2022/12/30 00:37:42;;;;;;;20.38;4.22;;;;;;;4.66;100.00;100883.91;5082943;28;20021;-74
2022/12/30 00:40:08;;;;;;;20.85;4.13;;;;;;;4.61;100.00;100879.38;5082860;28;20355;-75
2022/12/30 00:45:18;;;;;;;21.23;4.35;;;;;;;4.61;100.00;100876.75;5084836;28;20051;-74
2022/12/30 00:47:44;;;;;;;22.35;4.45;;;;;;;4.58;100.00;100881.91;5087024;28;20020;-74
2022/12/30 00:58:21;;;;;;;21.30;4.40;;;;;;;4.42;100.00;100872.72;5080890;28;20128;-74
2022/12/30 01:00:47;;;;;;;23.35;4.68;;;;;;;4.48;100.00;100871.16;5087241;28;20115;-74
2022/12/30 01:03:13;;;;;;;22.63;4.38;;;;;;;4.47;100.00;100882.50;5084966;28;20124;-74
2022/12/30 01:05:39;;;;;;;21.92;4.03;;;;;;;4.42;100.00;100885.81;5086185;28;20119;-74
2022/12/30 01:08:05;;;;;;;25.08;5.15;;;;;;;4.40;100.00;100885.75;5086269;28;20089;-74
2022/12/30 01:10:30;;;;;;;23.30;4.53;;;;;;;4.28;100.00;100882.75;5084661;28;20029;-75
2022/12/30 01:12:56;;;;;;;23.55;4.50;;;;;;;4.24;100.00;100891.34;5087567;28;20070;-75
2022/12/30 01:15:21;;;;;;;22.10;4.80;;;;;;;4.19;100.00;100891.22;5083985;28;20033;-75
2022/12/30 01:17:46;;;;;;;22.35;4.82;;;;;;;4.19;100.00;100889.50;5086822;28;20044;-75
2022/12/30 01:20:12;;;;;;;23.40;4.63;;;;;;;4.18;100.00;100890.34;5085246;28;20040;-75
2022/12/30 01:22:37;;;;;;;22.67;4.60;;;;;;;4.18;100.00;100887.72;5085350;28;20070;-74
2022/12/30 01:25:03;;;;;;;21.00;4.20;;;;;;;4.24;100.00;100880.88;5086659;28;20040;-74
2022/12/30 01:27:30;;;;;;;22.33;4.50;;;;;;;4.30;100.00;100881.97;5084031;28;20032;-74
2022/12/30 01:29:56;;;;;;;23.38;4.43;;;;;;;4.28;100.00;100885.38;5087149;28;20028;-76
2022/12/30 01:32:22;;;;;;;24.08;4.85;;;;;;;4.29;100.00;100900.25;5075479;28;20418;-75
2022/12/30 01:34:51;;;;;;;22.85;4.20;;;;;;;4.29;100.00;100903.75;5083538;28;20168;-74
2022/12/30 01:37:17;;;;;;;24.00;4.53;;;;;;;4.27;100.00;100900.19;5086440;28;20043;-74
2022/12/30 01:39:42;;;;;;;21.85;4.70;;;;;;;4.19;100.00;100905.19;5066817;28;20039;-74
2022/12/30 01:42:26;;;;;;;23.08;4.47;;;;;;;4.14;100.00;100917.25;5085060;28;20056;-75
2022/12/30 01:44:56;;;;;;;25.60;4.60;;;;;;;4.12;100.00;100918.03;5079453;28;20037;-75
2022/12/30 01:47:29;;;;;;;23.30;4.63;;;;;;;4.10;100.00;100914.47;5079575;28;20371;-74
2022/12/30 01:50:09;;;;;;;23.45;4.78;;;;;;;4.13;100.00;100920.69;5079754;28;20029;-75
2022/12/30 01:52:37;;;;;;;22.52;4.22;;;;;;;4.08;100.00;100917.06;5082235;28;20036;-75
2022/12/30 01:55:08;;;;;;;24.08;4.88;;;;;;;4.05;100.00;100929.13;5067650;28;20024;-74
2022/12/30 01:57:37;;;;;;;23.77;4.63;;;;;;;4.06;100.00;100921.31;5066171;28;20028;-74
2022/12/30 02:00:03;;;;;;;22.23;4.32;;;;;;;4.06;100.00;100928.28;5085656;28;20024;-75
2022/12/30 02:02:29;;;;;;;22.80;4.50;;;;;;;4.08;100.00;100937.06;5083597;28;20398;-75
2022/12/30 02:04:55;;;;;;;23.00;4.30;;;;;;;4.08;100.00;100932.75;5086473;28;20039;-74
2022/12/30 02:07:27;;;;;;;20.40;4.22;;;;;;;4.13;100.00;100933.78;5083255;28;20426;-74
2022/12/30 02:09:53;;;;;;;21.42;4.03;;;;;;;4.14;100.00;100921.59;5079279;28;20021;-75
2022/12/30 02:12:19;;;;;;;20.77;4.20;;;;;;;4.17;100.00;100911.22;5086040;28;20118;-73
2022/12/30 02:14:46;;;;;;;22.73;4.22;;;;;;;4.26;100.00;100923.72;5083658;28;20098;-73
2022/12/30 02:17:36;;;;;;;22.25;4.70;;;;;;;4.28;100.00;100904.59;5084972;28;20090;-73
2022/12/30 02:20:07;;;;;;;22.13;4.30;;;;;;;4.28;100.00;100904.59;5081091;28;20070;-72
2022/12/30 02:22:52;;;;;;;24.00;4.35;;;;;;;4.27;100.00;100892.34;5085465;28;20028;-78
2022/12/30 02:25:31;;;;;;;22.08;3.95;;;;;;;4.31;100.00;100909.00;5085810;28;20067;-86
2022/12/30 02:28:34;;;;;;;20.08;3.75;;;;;;;4.32;100.00;100889.88;5079421;28;20029;-73
2022/12/30 02:31:05;;;;;;;22.15;4.10;;;;;;;4.27;100.00;100896.69;5065673;28;20658;-73
2022/12/30 02:33:44;;;;;;;21.90;4.38;;;;;;;4.17;100.00;100885.94;5072904;28;20102;-75
2022/12/30 02:36:27;;;;;;;22.00;4.55;;;;;;;4.17;100.00;100885.94;5079120;28;20028;-73
2022/12/30 02:39:07;;;;;;;21.60;4.47;;;;;;;4.23;100.00;100892.22;5083829;28;20027;-74
2022/12/30 02:44:48;;;;;;;19.95;4.05;;;;;;;4.07;100.00;100876.03;5083663;28;20090;-74
2022/12/30 02:47:17;;;;;;;23.05;4.30;;;;;;;4.04;100.00;100882.91;5061715;28;20075;-73
2022/12/30 02:52:14;;;;;;;21.67;4.05;;;;;;;3.99;100.00;100872.25;5084773;28;20051;-73
2022/12/30 02:52:34;;;;;;;22.60;4.30;;;;;;;3.94;100.00;100866.00;5077982;28;20468;-77
2022/12/30 02:54:59;;;;;;;22.20;4.20;;;;;;;3.86;100.00;100863.16;5085124;28;20039;-73
2022/12/30 02:57:31;;;;;;;24.58;4.07;;;;;;;3.81;100.00;100857.75;5083302;28;20036;-73
2022/12/30 03:06:38;;;;;;;21.20;4.13;;;;;;;3.49;100.00;100847.16;5082816;28;20046;-74
2022/12/30 03:09:24;;;;;;;26.52;4.55;;;;;;;3.43;100.00;100854.78;5077939;28;20032;-74
2022/12/30 03:11:58;;;;;;;21.45;4.25;;;;;;;3.43;100.00;100851.28;5081124;28;20045;-76
2022/12/30 03:14:33;;;;;;;23.20;4.32;;;;;;;3.38;100.00;100853.75;5082781;28;20378;-75
2022/12/30 03:17:06;;;;;;;22.73;4.53;;;;;;;3.33;100.00;100860.53;5084530;28;20040;-75
2022/12/30 03:19:35;;;;;;;;;;;;;;;3.51;100.00;100862.91;5082219;28;20379;-75
2022/12/30 03:22:01;;;;;;;23.52;4.35;;;;;;;3.52;100.00;100851.59;5084836;28;19912;-75
2022/12/30 03:27:21;;;;;;;26.02;4.65;;;;;;;3.57;100.00;100854.34;5080382;28;20503;-74
2022/12/30 03:29:53;;;;;;;23.70;4.40;;;;;;;3.48;100.00;100855.84;5083720;28;20134;-74
2022/12/30 03:32:20;;;;;;;22.80;4.20;;;;;;;3.43;100.00;100844.31;5083120;28;20036;-75
2022/12/30 03:34:46;;;;;;;22.05;4.43;;;;;;;3.41;100.00;100850.38;5083867;28;20378;-74
2022/12/30 03:37:32;;;;;;;22.60;4.55;;;;;;;3.31;100.00;100846.53;5082271;28;20051;-74
2022/12/30 03:40:02;;;;;;;24.25;4.15;;;;;;;3.24;100.00;100839.34;5081911;28;20494;-74
2022/12/30 03:42:29;;;;;;;25.35;4.30;;;;;;;3.13;100.00;100839.84;5084242;28;20138;-74
2022/12/30 03:44:55;;;;;;;22.17;4.38;;;;;;;3.06;100.00;100845.69;5082033;28;20036;-74
2022/12/30 03:47:20;;;;;;;22.92;4.85;;;;;;;3.03;100.00;100835.16;5065019;28;20102;-75
2022/12/30 03:49:46;;;;;;;23.23;4.60;;;;;;;2.96;100.00;100844.47;5083552;28;20056;-74
2022/12/30 03:52:18;;;;;;;23.05;4.63;;;;;;;2.95;100.00;100849.66;5081680;28;20467;-74
2022/12/30 03:54:44;;;;;;;23.08;4.65;;;;;;;2.84;100.00;100848.38;5083587;28;20028;-74
2022/12/30 03:57:09;;;;;;;23.25;4.60;;;;;;;2.78;100.00;100846.44;5063592;28;20027;-75
2022/12/30 03:59:35;;;;;;;23.15;5.00;;;;;;;2.80;100.00;100847.41;5084523;28;20374;-74
2022/12/30 04:02:00;;;;;;;24.00;5.15;;;;;;;2.75;100.00;100849.84;5081183;28;20040;-74
2022/12/30 04:04:26;;;;;;;23.85;5.03;;;;;;;2.76;100.00;100851.59;5083558;28;20035;-74
2022/12/30 04:06:52;;;;;;;26.13;5.07;;;;;;;2.85;100.00;100853.66;5082305;28;20039;-75
2022/12/30 04:09:18;;;;;;;23.88;5.25;;;;;;;2.81;100.00;100854.41;5064350;28;20021;-74
2022/12/30 04:11:43;;;;;;;21.65;4.85;;;;;;;2.87;100.00;100848.47;5083648;28;20032;-74
2022/12/30 04:14:10;;;;;;;24.40;4.93;;;;;;;2.87;100.00;100853.69;5081044;28;20412;-75
2022/12/30 04:16:36;;;;;;;25.25;4.93;;;;;;;2.88;100.00;100858.97;5083888;28;20044;-75
2022/12/30 04:19:01;;;;;;;26.60;4.93;;;;;;;2.91;100.00;100866.94;5081115;28;20032;-74
2022/12/30 04:21:26;;;;;;;22.33;4.63;;;;;;;2.87;100.00;100866.75;5083396;28;20062;-75
2022/12/30 04:23:51;;;;;;;21.40;4.57;;;;;;;2.90;100.00;100874.72;5082219;28;20035;-75
2022/12/30 04:26:17;;;;;;;24.02;5.18;;;;;;;2.92;100.00;100878.28;5082012;28;20035;-74
2022/12/30 04:28:42;;;;;;;23.00;4.75;;;;;;;2.91;100.00;100866.03;5083817;28;20107;-74
2022/12/30 04:31:08;;;;;;;24.27;4.90;;;;;;;2.93;100.00;100865.28;5080850;28;20368;-76
2022/12/30 04:33:33;;;;;;;24.70;5.03;;;;;;;2.91;100.00;100859.13;5084149;28;20335;-74
2022/12/30 04:35:58;;;;;;;22.40;4.60;;;;;;;2.93;100.00;100853.94;5081069;28;20070;-75
2022/12/30 04:38:24;;;;;;;25.00;5.07;;;;;;;2.91;100.00;100847.75;5083325;28;20059;-74
2022/12/30 04:40:49;;;;;;;24.23;4.97;;;;;;;2.89;100.00;100846.84;5082396;28;20020;-75
2022/12/30 04:43:15;;;;;;;24.63;4.70;;;;;;;2.89;100.00;100854.66;5081503;28;20078;-74
2022/12/30 04:45:40;;;;;;;23.67;4.72;;;;;;;2.84;100.00;100853.59;5083694;28;20149;-75
2022/12/30 04:48:05;;;;;;;25.33;4.93;;;;;;;2.82;100.00;100850.94;5080552;28;20451;-74
2022/12/30 04:50:31;;;;;;;23.45;4.70;;;;;;;2.79;100.00;100853.44;5083992;28;20074;-74
2022/12/30 04:52:56;;;;;;;24.77;4.82;;;;;;;2.74;100.00;100848.06;5081553;28;20059;-74
2022/12/30 04:55:21;;;;;;;22.85;4.72;;;;;;;2.75;100.00;100857.69;5082237;28;20025;-73
2022/12/30 04:57:47;;;;;;;24.27;5.30;;;;;;;2.74;100.00;100845.44;5083002;28;20036;-73
2022/12/30 05:00:13;;;;;;;23.48;4.68;;;;;;;2.76;100.00;100846.38;5063060;28;20426;-78
2022/12/30 05:02:38;;;;;;;24.48;4.90;;;;;;;2.77;100.00;100840.31;5083774;28;20063;-74
2022/12/30 05:05:04;;;;;;;24.13;5.07;;;;;;;2.73;100.00;100850.63;5080505;28;20036;-73
2022/12/30 05:07:29;;;;;;;25.90;5.40;;;;;;;2.70;100.00;100843.56;5083573;28;20028;-78
2022/12/30 05:09:55;;;;;;;25.13;5.35;;;;;;;2.70;100.00;100833.09;5081382;28;20024;-81
2022/12/30 05:12:20;;;;;;;24.00;5.05;;;;;;;2.63;100.00;100844.16;5082170;28;20029;-73
2022/12/30 05:14:45;;;;;;;26.60;5.55;;;;;;;2.65;100.00;100836.38;5082680;28;20032;-74
2022/12/30 05:17:11;;;;;;;23.77;5.30;;;;;;;2.63;100.00;100825.88;5080380;28;20081;-77
2022/12/30 05:19:36;;;;;;;23.30;4.85;;;;;;;2.71;100.00;100820.94;5083946;28;20036;-73
2022/12/30 05:22:01;;;;;;;25.25;5.20;;;;;;;2.73;100.00;100829.72;5080505;28;20032;-83
2022/12/30 05:27:11;;;;;;;24.25;5.00;;;;;;;2.85;100.00;100830.16;5078114;28;20418;-74
2022/12/30 05:29:36;;;;;;;24.85;5.15;;;;;;;2.85;100.00;100824.06;5087455;28;20115;-73
2022/12/30 05:32:01;;;;;;;22.90;5.18;;;;;;;2.79;100.00;100825.59;5084098;28;20025;-72
2022/12/30 05:34:27;;;;;;;25.00;5.30;;;;;;;2.87;100.00;100817.16;5086322;28;20029;-73
2022/12/30 05:36:52;;;;;;;22.42;4.65;;;;;;;2.94;100.00;100825.28;5085084;28;20097;-73
2022/12/30 05:39:17;;;;;;;24.05;5.18;;;;;;;2.99;100.00;100846.31;5084817;28;20031;-74
2022/12/30 05:41:43;;;;;;;21.40;4.85;;;;;;;2.96;100.00;100830.53;5086825;28;20055;-72
2022/12/30 05:44:08;;;;;;;24.17;4.90;;;;;;;3.03;100.00;100839.47;5083584;28;20039;-75
2022/12/30 05:46:33;;;;;;;24.30;5.07;;;;;;;3.02;100.00;100830.75;5079321;28;20537;-73
2022/12/30 05:48:59;;;;;;;24.33;5.15;;;;;;;3.01;100.00;100825.47;5086501;28;20119;-73
2022/12/30 05:51:24;;;;;;;28.17;5.50;;;;;;;3.05;100.00;100828.25;5084874;28;20466;-74
2022/12/30 05:53:49;;;;;;;25.35;5.00;;;;;;;3.16;100.00;100827.72;5084760;28;20391;-73
2022/12/30 05:56:15;;;;;;;25.38;5.40;;;;;;;3.12;100.00;100822.41;5085982;28;20049;-73
2022/12/30 05:58:40;;;;;;;22.52;5.10;;;;;;;3.12;100.00;100825.00;5083334;28;20056;-73
2022/12/30 06:01:06;;;;;;;24.60;5.00;;;;;;;3.13;100.00;100824.19;5086708;28;20039;-77
2022/12/30 06:03:31;;;;;;;24.27;5.32;;;;;;;3.20;100.00;100837.44;5065339;28;20023;-79
2022/12/30 06:05:57;;;;;;;23.92;5.20;;;;;;;3.19;100.00;100825.22;5085575;28;20524;-75
2022/12/30 06:08:23;;;;;;;22.67;4.95;;;;;;;3.17;100.00;100832.13;5084394;28;20028;-73
2022/12/30 06:10:48;;;;;;;22.48;5.20;;;;;;;3.20;100.00;100816.53;5084473;28;20410;-72
2022/12/30 06:13:13;;;;;;;23.80;5.15;;;;;;;3.23;100.00;100816.66;5085643;28;20024;-86
2022/12/30 06:15:39;;;;;;;23.15;5.38;;;;;;;3.24;100.00;100815.81;5082793;28;20029;-80
2022/12/30 06:18:04;;;;;;;23.95;5.25;;;;;;;3.29;100.00;100801.16;5068242;28;20028;-81
2022/12/30 06:20:33;;;;;;;22.95;5.18;;;;;;;3.39;100.00;100803.25;5083312;28;20025;-85
2022/12/30 06:22:58;;;;;;;24.92;5.43;;;;;;;3.34;100.00;100798.72;5085626;28;20028;-83
2022/12/30 06:25:24;;;;;;;23.33;5.50;;;;;;;3.27;100.00;100793.28;5066051;28;20035;-85
2022/12/30 06:27:49;;;;;;;23.10;5.43;;;;;;;3.34;100.00;100797.00;5084074;28;20036;-82
2022/12/30 06:30:15;;;;;;;22.98;5.10;;;;;;;3.35;100.00;100790.03;5085627;28;20024;-85
2022/12/30 06:32:41;;;;;;;22.73;4.95;;;;;;;3.30;100.00;100795.13;5082660;28;20055;-85
2022/12/30 06:35:10;;;;;;;23.65;4.95;;;;;;;3.40;100.00;100797.19;5086231;28;20374;-87
2022/12/30 06:37:36;;;;;;;23.65;5.05;;;;;;;3.39;100.00;100791.91;5078835;28;20025;-88
2022/12/30 06:40:02;;;;;;;21.55;5.05;;;;;;;3.33;100.00;100792.59;5081788;28;20086;-84
2022/12/30 06:42:27;;;;;;;22.65;5.55;;;;;;;3.31;100.00;100789.94;5082435;28;20036;-82
2022/12/30 06:44:52;;;;;;;23.90;5.85;;;;;;;3.29;100.00;100770.72;5085053;28;20116;-85
2022/12/30 06:47:18;;;;;;;23.63;5.35;;;;;;;3.33;100.00;100776.03;5071874;28;20056;-82
2022/12/30 06:49:43;;;;;;;24.88;5.85;;;;;;;3.28;100.00;100778.50;5083098;28;20032;-85
2022/12/30 06:52:09;;;;;;;23.85;5.68;;;;;;;3.21;100.00;100760.84;5074349;28;20028;-82
2022/12/30 06:54:34;;;;;;;24.70;5.63;;;;;;;3.19;100.00;100759.91;5081451;28;20035;-83
2022/12/30 06:56:59;;;;;;;24.08;5.68;;;;;;;3.19;100.00;100758.19;5077474;28;20075;-83
2022/12/30 06:59:25;;;;;;;23.35;5.65;;;;;;;3.25;100.00;100747.94;5077650;28;20407;-81
2022/12/30 07:01:50;;;;;;;22.85;5.53;;;;;;;3.24;100.00;100740.06;5083081;28;20041;-78
2022/12/30 07:04:15;;;;;;;25.80;6.10;;;;;;;3.17;100.00;100732.84;5077418;28;20124;-82
2022/12/30 07:06:41;;;;;;;25.08;6.15;;;;;;;3.20;100.00;100727.72;5074469;28;20029;-84
2022/12/30 07:09:06;;;;;;;25.15;5.80;;;;;;;3.21;100.00;100719.06;5079762;28;20036;-81
2022/12/30 07:11:32;;;;;;;24.67;5.95;;;;;;;3.17;100.00;100722.41;5079786;28;20474;-82
2022/12/30 07:13:57;;;;;;;24.80;5.95;;;;;;;3.17;100.00;100727.63;5077473;28;20029;-83
2022/12/30 07:16:22;;;;;;;23.33;5.60;;;;;;;3.21;100.00;100719.06;5077907;28;20077;-80
2022/12/30 07:18:48;;;;;;;23.65;5.55;;;;;;;3.21;100.00;100712.09;5078472;28;20068;-82
2022/12/30 07:21:13;;;;;;;23.77;6.07;;;;;;;3.22;100.00;100713.88;5077092;28;20035;-81
2022/12/30 07:23:38;;;;;;;22.52;5.53;;;;;;;3.25;100.00;100711.34;5081468;28;20030;-80
2022/12/30 07:26:04;;;;;;;25.02;5.60;;;;;;;3.25;100.00;100708.75;5068333;28;20047;-78
2022/12/30 07:28:29;;;;;;;22.98;5.95;;;;;;;3.34;100.00;100718.59;5061120;28;20044;-80
2022/12/30 07:30:54;;;;;;;23.35;5.80;;;;;;;3.34;100.00;100710.75;5063331;28;20033;-79
2022/12/30 07:33:20;;;;;;;22.38;5.28;;;;;;;3.42;100.00;100701.44;5078718;28;20032;-79
2022/12/30 07:35:46;;;;;;;22.73;5.70;;;;;;;3.53;100.00;100698.28;5068368;28;20114;-81
2022/12/30 07:38:11;;;;;;;22.20;5.35;;;;;;;3.53;100.00;100691.31;5076962;28;20085;-79
2022/12/30 07:40:37;;;;;;;22.38;5.35;;;;;;;3.55;100.00;100683.50;5081654;28;20123;-74
2022/12/30 07:43:03;;;;;;;22.67;5.75;;;;;;;3.59;100.00;100680.16;5078565;28;20028;-80
2022/12/30 07:45:28;;;;;;;21.88;5.00;;;;;;;3.58;100.00;100688.81;5069013;28;20028;-83
2022/12/30 07:47:57;;;;;;;20.50;4.97;;;;;;;3.65;100.00;100673.34;5036376;28;20485;-74
2022/12/30 07:50:23;;;;;;;20.65;5.15;;;;;;;3.67;100.00;100669.09;5075391;28;20058;-75
2022/12/30 07:52:48;;;;;;;20.80;5.00;;;;;;;3.68;100.00;100664.72;5086812;28;20395;-70
2022/12/30 07:55:13;;;;;;;20.00;5.00;;;;;;;3.72;100.00;100656.13;5072535;28;20051;-72
2022/12/30 07:57:39;;;;;;;19.83;5.20;;;;;;;3.78;100.00;100655.44;5067764;28;20428;-74
2022/12/30 08:00:04;;;;;;;22.00;5.45;;;;;;;3.78;100.00;100644.97;5074192;28;20036;-75
2022/12/30 08:02:30;;;;;;;20.75;4.80;;;;;;;3.82;100.00;100637.25;5071451;28;20025;-73
2022/12/30 08:04:55;;;;;;;21.67;4.80;;;;;;;3.96;100.00;100639.38;5074390;28;20029;-75
2022/12/30 08:07:21;;;;;;;21.35;4.50;;;;;;;3.94;100.00;100634.09;5069689;28;20036;-73
2022/12/30 08:09:46;;;;;;;20.15;4.90;;;;;;;3.99;100.00;100628.97;5079859;28;20036;-74
2022/12/30 08:12:11;;;;;;;20.63;4.97;;;;;;;4.02;100.00;100629.09;5073140;28;20032;-72
2022/12/30 08:14:37;;;;;;;21.77;4.97;;;;;;;4.10;100.00;100621.44;5076479;28;20032;-76
2022/12/30 08:17:02;;;;;;;20.63;4.60;;;;;;;4.19;100.00;100622.59;5068228;28;20127;-72
2022/12/30 08:19:28;;;;;;;19.13;4.45;;;;;;;4.26;100.00;100625.38;5068850;28;20045;-73
2022/12/30 08:21:54;;;;;;;19.80;4.65;;;;;;;4.29;100.00;100617.59;5071819;28;20021;-74
2022/12/30 08:24:19;;;;;;;20.85;4.80;;;;;;;4.29;100.00;100617.59;5069852;28;20039;-73
2022/12/30 08:26:44;;;;;;;20.10;4.75;;;;;;;4.31;100.00;100618.50;5067735;28;20023;-73
2022/12/30 08:29:10;;;;;;;21.02;4.68;;;;;;;4.43;100.00;100612.72;5071215;28;20116;-75
2022/12/30 08:31:35;;;;;;;20.33;4.60;;;;;;;4.41;100.00;100611.78;5072893;28;20112;-73
2022/12/30 08:34:01;;;;;;;18.33;4.43;;;;;;;4.48;100.00;100613.72;5072733;28;20016;-74
2022/12/30 08:36:28;;;;;;;20.15;4.50;;;;;;;4.51;100.00;100614.69;5070838;28;20066;-74
2022/12/30 08:38:55;;;;;;;18.65;4.47;;;;;;;4.51;100.00;100590.22;5070708;28;20021;-74
2022/12/30 08:41:42;;;;;;;19.00;4.50;;;;;;;4.59;100.00;100600.88;5069262;28;20406;-80
2022/12/30 08:44:08;;;;;;;21.25;4.65;;;;;;;4.60;100.00;100593.09;5075488;28;20032;-81
2022/12/30 08:46:35;;;;;;;19.73;4.70;;;;;;;4.61;100.00;100588.72;5071761;28;20082;-80
2022/12/30 08:49:01;;;;;;;19.80;4.30;;;;;;;4.62;100.00;100580.03;5073075;28;20484;-75
2022/12/30 08:51:27;;;;;;;19.45;4.55;;;;;;;4.64;100.00;100573.09;5072786;28;20063;-73
2022/12/30 08:53:52;;;;;;;19.42;4.57;;;;;;;4.66;100.00;100561.81;5073416;28;20395;-73
2022/12/30 08:56:21;;;;;;;19.05;4.28;;;;;;;4.71;100.00;100575.00;5076032;28;20031;-75
2022/12/30 08:58:46;;;;;;;19.30;4.22;;;;;;;4.71;100.00;100552.31;5076854;28;20028;-73
2022/12/30 09:01:15;;;;;;;18.98;4.18;;;;;;;4.79;100.00;100564.72;5076503;28;20068;-74
2022/12/30 09:03:41;;;;;;;17.65;4.05;;;;;;;4.87;100.00;100556.19;5079028;28;20067;-74
2022/12/30 09:06:09;;;;;;;18.23;4.00;;;;;;;4.94;100.00;100558.97;5084271;28;20024;-72
2022/12/30 09:08:35;;;;;;;18.60;4.00;;;;;;;4.99;100.00;100546.84;5086224;28;20016;-73
2022/12/30 09:11:07;;;;;;;18.33;4.30;;;;;;;5.02;100.00;100553.03;5082070;28;20530;-75
2022/12/30 09:13:36;;;;;;;19.10;4.07;;;;;;;5.15;100.00;100545.44;5071012;28;20024;-73
2022/12/30 09:16:06;;;;;;;18.40;3.78;;;;;;;5.21;100.00;100538.59;5083358;28;20484;-74
2022/12/30 09:18:32;;;;;;;17.55;3.88;;;;;;;5.23;100.00;100528.16;5080018;28;20038;-74
2022/12/30 09:20:57;;;;;;;16.55;3.50;;;;;;;5.24;100.00;100530.81;5082230;28;20431;-74
2022/12/30 09:23:23;;;;;;;16.58;3.50;;;;;;;5.31;100.00;100539.66;5059745;28;20037;-74
2022/12/30 09:25:48;;;;;;;16.55;3.50;;;;;;;5.36;100.00;100535.41;5080121;28;20101;-73
2022/12/30 09:28:14;;;;;;;17.65;3.67;;;;;;;5.43;100.00;100533.78;5072573;28;20427;-74
2022/12/30 09:30:39;;;;;;;18.17;3.53;;;;;;;5.55;100.00;100520.94;5075371;28;20039;-71
2022/12/30 09:33:05;;;;;;;13.40;3.00;;;;;;;5.61;100.00;100524.50;5082466;28;20024;-74
2022/12/30 09:35:30;;;;;;;14.50;3.00;;;;;;;5.65;100.00;100521.09;5084132;28;20035;-80
2022/12/30 09:37:56;;;;;;;17.17;3.20;;;;;;;5.72;100.00;100530.84;5077930;28;20028;-86
2022/12/30 09:40:35;;;;;;;16.70;3.22;;;;;;;5.81;100.00;100511.78;5083832;28;20031;-84
2022/12/30 09:43:16;;;;;;;16.17;3.00;;;;;;;5.80;100.00;100508.28;5072164;28;20035;-87
2022/12/30 09:45:47;;;;;;;16.15;2.97;;;;;;;5.87;100.00;100510.16;5081211;28;20059;-83
2022/12/30 09:48:19;;;;;;;14.30;2.92;;;;;;;5.93;100.00;100491.03;5082158;28;20100;-81
2022/12/30 09:50:53;;;;;;;13.85;2.90;;;;;;;5.97;100.00;100491.97;5086274;28;20024;-84
2022/12/30 09:53:31;;;;;;;15.07;2.97;;;;;;;6.05;100.00;100486.03;5054310;28;20533;-81
2022/12/30 09:56:02;;;;;;;15.07;2.60;;;;;;;6.05;100.00;100474.66;5065187;28;20043;-78
2022/12/30 09:58:34;;;;;;;13.77;2.65;;;;;;;6.09;100.00;100485.22;5074285;28;20032;-82
2022/12/30 10:01:25;;;;;;;16.38;3.00;;;;;;;6.15;100.00;100473.06;5060704;28;20116;-77
2022/12/30 10:03:54;;;;;;;14.32;2.88;;;;;;;6.17;100.00;100463.47;5081731;28;20040;-79
2022/12/30 10:06:27;;;;;;;12.38;2.78;;;;;;;6.21;100.00;100463.53;5080809;28;20033;-79
2022/12/30 10:09:03;;;;;;;17.90;3.10;;;;;;;6.22;100.00;100457.44;5079017;28;20108;-79
2022/12/30 10:11:37;;;;;;;14.25;2.78;;;;;;;6.23;100.00;100459.22;5080377;28;20060;-79
2022/12/30 10:14:12;;;;;;;12.75;2.72;;;;;;;6.27;100.00;100450.50;5068250;28;20036;-73
2022/12/30 10:16:51;;;;;;;15.65;3.03;;;;;;;6.33;100.00;100448.84;5070798;28;20049;-78
2022/12/30 10:19:33;;;;;;;16.52;2.97;;;;;;;6.34;100.00;100424.38;5077935;28;20024;-73
2022/12/30 10:22:16;;;;;;;15.13;2.70;;;;;;;6.37;100.00;100406.91;5069337;28;20031;-76
2022/12/30 10:24:56;;;;;;;15.88;2.95;;;;;;;6.37;100.00;100400.78;5071259;28;20967;-74
2022/12/30 10:27:30;;;;;;;14.48;2.65;;;;;;;6.44;100.00;100395.63;5081365;28;20445;-75
2022/12/30 10:29:56;;;;;;;15.85;2.83;;;;;;;6.45;100.00;100386.91;5082163;28;20032;-74
2022/12/30 10:32:26;;;;;;;13.55;2.65;;;;;;;6.41;100.00;100384.22;5085852;28;20028;-74
2022/12/30 10:35:02;;;;;;;9.88;2.70;;;;;;;6.42;100.00;100384.22;5082939;28;20052;-74
2022/12/30 10:37:35;;;;;;;15.38;2.63;;;;;;;6.47;100.00;100372.91;5071468;28;20033;-76
2022/12/30 10:40:08;;;;;;;13.90;2.83;;;;;;;6.49;100.00;100364.16;5054362;28;20527;-83
2022/12/30 10:42:52;;;;;;;14.25;2.80;;;;;;;6.56;100.00;100345.00;5079296;28;20511;-84
2022/12/30 10:45:26;;;;;;;13.10;2.70;;;;;;;6.61;100.00;100343.34;5078242;28;20036;-83
2022/12/30 10:48:01;;;;;;;16.58;2.90;;;;;;;6.64;100.00;100339.88;5078226;28;20442;-78
2022/12/30 10:50:32;;;;;;;16.83;2.90;;;;;;;6.68;100.00;100325.88;5068628;28;20057;-77
2022/12/30 10:53:00;;;;;;;16.90;3.17;;;;;;;6.71;100.00;100309.28;5074353;28;20025;-79
2022/12/30 10:55:29;;;;;;;14.30;2.90;;;;;;;6.82;100.00;100328.69;5082308;28;20166;-77
2022/12/30 10:58:04;;;;;;;15.82;3.03;;;;;;;6.90;100.00;100295.50;5074563;28;20502;-77
2022/12/30 11:00:39;;;;;;;16.00;2.85;;;;;;;6.91;100.00;100296.38;5076653;28;20020;-75
2022/12/30 11:03:17;;;;;;;15.20;2.72;;;;;;;6.91;100.00;100285.88;5071268;28;20032;-74
2022/12/30 11:05:43;;;;;;;17.60;2.90;;;;;;;6.88;100.00;100281.47;5079755;28;20097;-79
2022/12/30 11:08:29;;;;;;;16.27;2.90;;;;;;;6.89;100.00;100271.84;5079346;28;20103;-79
2022/12/30 11:11:06;;;;;;;17.25;3.40;;;;;;;6.91;100.00;100265.72;5080754;28;20039;-79
2022/12/30 11:16:23;;;;;;;16.88;2.90;;;;;;;6.95;100.00;100248.25;5083394;28;20109;-75
2022/12/30 11:18:49;;;;;;;20.45;3.40;;;;;;;7.00;100.00;100253.53;5072148;28;20053;-75
2022/12/30 11:21:24;;;;;;;16.98;2.90;;;;;;;7.02;100.00;100231.69;5062472;28;20036;-77
2022/12/30 11:23:54;;;;;;;17.20;3.20;;;;;;;7.01;100.00;100243.03;5075290;28;20055;-78
2022/12/30 11:26:22;;;;;;;13.50;2.80;;;;;;;7.02;100.00;100226.41;5070922;28;20115;-77
2022/12/30 11:28:57;;;;;;;15.05;2.90;;;;;;;7.08;100.00;100202.81;5082954;28;20127;-76
2022/12/30 11:31:35;;;;;;;13.45;2.88;;;;;;;7.21;100.00;100195.91;5073591;28;20360;-79
2022/12/30 11:34:03;;;;;;;14.65;2.80;;;;;;;7.15;100.00;100174.84;5074825;28;20052;-78
2022/12/30 11:36:28;;;;;;;15.55;3.10;;;;;;;7.16;100.00;100171.31;5072675;28;20498;-79
2022/12/30 11:38:56;;;;;;;15.30;2.88;;;;;;;7.19;100.00;100167.84;5070279;28;20029;-76
2022/12/30 11:41:25;;;;;;;17.77;2.97;;;;;;;7.18;100.00;100151.19;5072116;28;20025;-79
2022/12/30 11:43:52;;;;;;;17.98;3.05;;;;;;;7.28;100.00;100141.59;5076183;28;20029;-78
2022/12/30 11:46:20;;;;;;;16.08;3.13;;;;;;;7.31;100.00;100136.38;5071824;28;20037;-79
2022/12/30 11:48:49;;;;;;;14.57;2.80;;;;;;;7.35;100.00;100137.28;5071952;28;20025;-77
2022/12/30 11:51:25;;;;;;;15.65;2.80;;;;;;;7.39;100.00;100126.78;5069714;28;20102;-76
2022/12/30 11:54:06;;;;;;;16.88;2.97;;;;;;;7.40;100.00;100111.91;5075851;28;20028;-79
2022/12/30 11:56:32;;;;;;;16.80;3.10;;;;;;;7.40;100.00;100104.00;5075613;28;20037;-78
2022/12/30 11:59:08;;;;;;;17.95;3.30;;;;;;;7.46;100.00;100101.41;5074463;28;20032;-79
2022/12/30 12:01:47;;;;;;;13.07;2.85;;;;;;;7.45;100.00;100068.09;5073990;28;20382;-78
2022/12/30 12:04:39;;;;;;;16.85;2.83;;;;;;;7.52;100.00;100069.88;5071634;28;20028;-83
2022/12/30 12:07:19;;;;;;;17.42;3.10;;;;;;;7.62;100.00;100070.81;5071283;28;20031;-77
2022/12/30 12:10:09;;;;;;;15.82;3.08;;;;;;;7.62;100.00;100071.66;5071639;28;20028;-79
2022/12/30 12:12:47;;;;;;;17.85;3.00;;;;;;;7.67;100.00;100053.28;5070043;28;20024;-74
2022/12/30 12:15:25;;;;;;;15.63;2.80;;;;;;;7.63;100.00;100046.22;5068844;28;20048;-74
2022/12/30 12:18:01;;;;;;;16.20;2.92;;;;;;;7.67;100.00;100050.63;5076654;28;20123;-72